createdAt,value
2019-01-18T00:00:46.280Z,5
2019-01-18T00:10:52.377Z,5
2019-01-18T00:20:57.338Z,4
2019-01-18T00:31:04.423Z,5
2019-01-18T00:41:12.593Z,5
2019-01-18T00:51:16.823Z,4
2019-01-18T01:01:23.895Z,5
2019-01-18T01:21:38.799Z,4
2019-01-18T01:31:46.533Z,5
2019-01-18T01:41:54.449Z,3
2019-01-18T01:52:01.489Z,5
2019-01-18T02:02:09.012Z,3
2019-01-18T02:12:15.391Z,3
2019-01-18T02:22:22.884Z,3
2019-01-18T02:32:31.462Z,3
2019-01-18T02:42:39.301Z,3
2019-01-18T02:52:45.716Z,4
2019-01-18T03:02:54.736Z,3
2019-01-18T03:13:02.954Z,3
2019-01-18T03:23:09.402Z,4
2019-01-18T03:33:18.895Z,3
2019-01-18T03:43:24.851Z,3
2019-01-18T03:53:33.367Z,3
2019-01-18T04:03:41.281Z,4
2019-01-18T04:13:49.240Z,3
2019-01-18T04:23:56.847Z,3
2019-01-18T04:34:08.737Z,4
2019-01-18T04:44:14.560Z,4
2019-01-18T04:54:22.531Z,4
2019-01-18T05:04:29.593Z,6
2019-01-18T05:14:37.829Z,7
2019-01-18T05:24:50.734Z,7
2019-01-18T05:34:53.407Z,6
2019-01-18T05:45:00.269Z,5
2019-01-18T05:55:07.102Z,5
2019-01-18T06:05:15.053Z,6
2019-01-18T06:15:24.194Z,7
2019-01-18T06:25:30.495Z,7
2019-01-18T06:35:38.310Z,5
2019-01-18T06:45:44.237Z,9
2019-01-18T06:55:51.846Z,6
2019-01-18T07:06:00.357Z,6
2019-01-18T07:09:19.758Z,8
2019-01-18T07:10:31.288Z,5
2019-01-18T07:20:37.308Z,7
2019-01-18T07:30:44.083Z,6
2019-01-18T07:36:04.759Z,8
2019-01-18T07:46:11.886Z,8
2019-01-18T07:56:21.521Z,8
2019-01-18T08:06:28.184Z,8
2019-01-18T08:16:36.180Z,8
2019-01-18T08:26:41.730Z,6
2019-01-18T08:36:48.863Z,6
2019-01-18T08:46:57.059Z,7
2019-01-18T08:57:04.129Z,7
2019-01-18T09:07:14.043Z,7
2019-01-18T09:17:20.642Z,5
2019-01-18T09:27:28.588Z,6
2019-01-18T09:37:35.468Z,5
2019-01-18T09:47:42.878Z,7
2019-01-18T09:57:50.165Z,5
2019-01-18T10:07:58.360Z,7
2019-01-18T10:18:04.390Z,6
2019-01-18T10:28:14.125Z,5
2019-01-18T10:38:20.618Z,3
2019-01-18T10:45:41.166Z,6
2019-01-18T10:55:44.091Z,6
2019-01-18T11:05:51.029Z,4
2019-01-18T11:16:00.228Z,8
2019-01-18T11:26:09.100Z,5
2019-01-18T11:36:19.725Z,3
2019-01-18T11:40:12.195Z,5
2019-01-18T11:50:14.643Z,3
2019-01-18T12:00:23.738Z,7
2019-01-18T12:04:39.169Z,4
2019-01-18T12:07:59.459Z,5
2019-01-18T12:18:14.399Z,5
2019-01-18T12:28:19.714Z,11
2019-01-18T12:37:38.460Z,4
2019-01-18T12:47:45.796Z,4
2019-01-18T12:57:53.442Z,5
2019-01-18T13:04:13.105Z,5
2019-01-18T13:10:36.956Z,5
2019-01-18T13:11:50.448Z,4
2019-01-18T13:15:43.893Z,25
2019-01-18T13:19:58.778Z,10
2019-01-18T13:25:27.088Z,5
2019-01-18T13:26:39.717Z,6
2019-01-18T13:28:02.386Z,4
2019-01-18T13:28:54.990Z,6
2019-01-18T13:30:12.570Z,5
2019-01-18T13:33:21.183Z,5
2019-01-18T13:43:28.200Z,6
2019-01-18T13:53:51.392Z,5
2019-01-18T13:56:06.684Z,5
2019-01-18T13:58:19.562Z,6
2019-01-18T14:08:27.321Z,8
2019-01-18T14:13:50.529Z,9
2019-01-18T14:15:03.641Z,6
2019-01-18T14:16:37.242Z,24
2019-01-18T14:26:43.869Z,9
2019-01-18T14:27:54.275Z,7
2019-01-18T14:38:02.122Z,4
2019-01-18T14:43:17.735Z,4
2019-01-18T14:45:35.552Z,6
2019-01-18T14:55:40.562Z,9
2019-01-18T15:05:48.578Z,15
2019-01-18T15:09:03.813Z,12
2019-01-18T15:19:12.370Z,7
2019-01-18T15:29:25.378Z,9
2019-01-18T15:39:29.350Z,13
2019-01-18T15:49:37.112Z,9
2019-01-18T15:59:44.805Z,11
2019-01-18T16:09:56.434Z,11
2019-01-18T16:20:06.064Z,28
2019-01-18T16:24:27.053Z,34
2019-01-18T16:25:49.567Z,34
2019-01-18T16:35:58.514Z,31
2019-01-18T16:46:05.906Z,39
2019-01-18T16:56:26.785Z,39
2019-01-18T17:06:34.955Z,27
2019-01-18T17:16:46.421Z,11
2019-01-18T17:22:59.191Z,47
2019-01-18T17:33:05.808Z,18
2019-01-18T17:34:18.086Z,18
2019-01-18T17:44:24.580Z,17
2019-01-18T17:53:47.614Z,16
2019-01-18T17:54:59.336Z,16
2019-01-18T18:05:28.454Z,17
2019-01-18T18:15:37.168Z,16
2019-01-18T18:25:45.401Z,14
2019-01-18T18:35:52.560Z,13
2019-01-18T18:46:03.168Z,33
2019-01-18T18:55:22.032Z,23
2019-01-18T18:56:34.842Z,24
2019-01-18T19:06:43.610Z,28
2019-01-18T19:16:49.727Z,36
2019-01-18T19:26:57.721Z,58
2019-01-18T19:37:06.026Z,29
2019-01-18T19:47:12.870Z,18
2019-01-18T19:57:18.970Z,27
2019-01-18T20:07:27.318Z,32
2019-01-18T20:17:35.241Z,24
2019-01-18T20:27:43.325Z,9
2019-01-18T20:37:54.428Z,12
2019-01-18T20:48:03.164Z,13
2019-01-18T20:58:11.385Z,12
2019-01-18T21:08:19.950Z,15
2019-01-18T21:18:28.504Z,14
2019-01-18T21:28:37.374Z,14
2019-01-18T21:38:44.846Z,12
2019-01-18T21:48:51.300Z,12
2019-01-18T21:58:58.039Z,10
2019-01-18T22:05:14.629Z,9
2019-01-18T22:15:22.938Z,8
2019-01-18T22:25:28.956Z,12
2019-01-18T22:35:36.269Z,8
2019-01-18T22:45:42.315Z,14
2019-01-18T22:55:50.642Z,14
2019-01-18T23:05:57.350Z,9
2019-01-18T23:16:04.561Z,9
2019-01-18T23:26:12.332Z,7
2019-01-18T23:36:20.830Z,7
2019-01-18T23:46:28.410Z,6
2019-01-18T23:56:38.689Z,7
